CheckWX is a tool to help pilots better visualize weather data.  It is not intended as a substitute for an official pre-flight weather briefing.

09:26:00 UTC

KCGC METAR
Crystal River-Captain Tom Davis Field Airport
Crystal River, Florida, USA
Current

31 mins ago

KCGC 200855Z AUTO 09003KT 5SM BR SCT016 SCT021 18/18 A3009 RMK AO2
Observed
Feb-20 @ 08:55 UTC
Wind
  • 090° at 3 KTS
Visibility
8,047 meters
Flight Rules
MVFR
Conditions
Mist
Cloud Levels
  • Scattered at 1,600' AGL
  • Scattered at 2,100' AGL
Temperature
18°C / 64°F
Dewpoint
18°C / 64°F
Humidity
100%
Altimeter
30.09" Hg
Pressure
1018.92 hPa
Previous

51 mins ago

KCGC 200835Z AUTO 09004KT 5SM BR BKN018 18/18 A3009 RMK AO2
Observed
Feb-20 @ 08:35 UTC
Wind
  • 090° at 4 KTS
Visibility
8,047 meters
Flight Rules
MVFR
Conditions
Mist
Cloud Levels
  • Broken at 1,800' AGL
Temperature
18°C / 64°F
Dewpoint
18°C / 64°F
Humidity
100%
Altimeter
30.09" Hg
Pressure
1018.92 hPa
Previous

1 hour ago

KCGC 200815Z AUTO 09003KT 5SM BR SCT020 18/18 A3011 RMK AO2
Observed
Feb-20 @ 08:15 UTC
Wind
  • 090° at 3 KTS
Visibility
8,047 meters
Flight Rules
MVFR
Conditions
Mist
Cloud Levels
  • Scattered at 2,000' AGL
Temperature
18°C / 64°F
Dewpoint
18°C / 64°F
Humidity
100%
Altimeter
30.11" Hg
Pressure
1019.62 hPa